sensor_id;sensor_type;location;lat;lon;timestamp;P1;durP1;ratioP1;P2;durP2;ratioP2
3939;SDS011;1984;48.312;9.244;2024-01-16T00:00:33;0.80;;;0.60;;
3939;SDS011;1984;48.312;9.244;2024-01-16T00:02:59;1.67;;;0.90;;
3939;SDS011;1984;48.312;9.244;2024-01-16T00:05:25;1.77;;;0.93;;
3939;SDS011;1984;48.312;9.244;2024-01-16T00:07:50;2.10;;;1.10;;
3939;SDS011;1984;48.312;9.244;2024-01-16T00:10:16;1.97;;;1.13;;
3939;SDS011;1984;48.312;9.244;2024-01-16T00:12:41;1.37;;;1.23;;
3939;SDS011;1984;48.312;9.244;2024-01-16T00:15:07;1.20;;;1.20;;
3939;SDS011;1984;48.312;9.244;2024-01-16T00:17:33;0.87;;;0.83;;
3939;SDS011;1984;48.312;9.244;2024-01-16T00:19:59;1.53;;;1.10;;
3939;SDS011;1984;48.312;9.244;2024-01-16T00:22:26;1.90;;;1.00;;
3939;SDS011;1984;48.312;9.244;2024-01-16T00:24:52;1.77;;;1.63;;
3939;SDS011;1984;48.312;9.244;2024-01-16T00:27:17;1.37;;;1.37;;
3939;SDS011;1984;48.312;9.244;2024-01-16T00:29:43;0.80;;;0.80;;
3939;SDS011;1984;48.312;9.244;2024-01-16T00:32:08;0.73;;;0.73;;
3939;SDS011;1984;48.312;9.244;2024-01-16T00:34:34;1.37;;;1.27;;
3939;SDS011;1984;48.312;9.244;2024-01-16T00:37:00;0.87;;;0.87;;
3939;SDS011;1984;48.312;9.244;2024-01-16T00:39:25;1.20;;;1.10;;
3939;SDS011;1984;48.312;9.244;2024-01-16T00:41:51;1.30;;;0.97;;
3939;SDS011;1984;48.312;9.244;2024-01-16T00:44:16;0.90;;;0.90;;
3939;SDS011;1984;48.312;9.244;2024-01-16T00:46:42;3.80;;;1.00;;
3939;SDS011;1984;48.312;9.244;2024-01-16T00:49:07;2.10;;;1.13;;
3939;SDS011;1984;48.312;9.244;2024-01-16T00:51:33;2.87;;;0.93;;
3939;SDS011;1984;48.312;9.244;2024-01-16T00:53:58;1.03;;;1.00;;
3939;SDS011;1984;48.312;9.244;2024-01-16T00:56:24;0.90;;;0.90;;
3939;SDS011;1984;48.312;9.244;2024-01-16T00:58:52;2.93;;;1.43;;
3939;SDS011;1984;48.312;9.244;2024-01-16T01:01:19;1.17;;;1.10;;
3939;SDS011;1984;48.312;9.244;2024-01-16T01:03:45;1.53;;;1.20;;
3939;SDS011;1984;48.312;9.244;2024-01-16T01:06:10;0.80;;;0.80;;
3939;SDS011;1984;48.312;9.244;2024-01-16T01:08:36;1.83;;;1.00;;
3939;SDS011;1984;48.312;9.244;2024-01-16T01:11:02;1.40;;;1.30;;
3939;SDS011;1984;48.312;9.244;2024-01-16T01:13:28;2.07;;;1.20;;
3939;SDS011;1984;48.312;9.244;2024-01-16T01:15:53;2.00;;;1.17;;
3939;SDS011;1984;48.312;9.244;2024-01-16T01:18:19;1.80;;;1.10;;
3939;SDS011;1984;48.312;9.244;2024-01-16T01:20:44;1.30;;;1.20;;
3939;SDS011;1984;48.312;9.244;2024-01-16T01:23:10;1.30;;;0.93;;
3939;SDS011;1984;48.312;9.244;2024-01-16T01:25:36;1.30;;;0.97;;
3939;SDS011;1984;48.312;9.244;2024-01-16T01:28:01;1.93;;;1.13;;
3939;SDS011;1984;48.312;9.244;2024-01-16T01:30:27;1.43;;;1.07;;
3939;SDS011;1984;48.312;9.244;2024-01-16T01:32:52;1.90;;;1.10;;
3939;SDS011;1984;48.312;9.244;2024-01-16T01:35:18;1.57;;;1.47;;
3939;SDS011;1984;48.312;9.244;2024-01-16T01:37:46;3.17;;;1.30;;
3939;SDS011;1984;48.312;9.244;2024-01-16T01:40:12;7.13;;;1.50;;
3939;SDS011;1984;48.312;9.244;2024-01-16T01:42:37;1.20;;;1.20;;
3939;SDS011;1984;48.312;9.244;2024-01-16T01:45:05;1.70;;;1.60;;
3939;SDS011;1984;48.312;9.244;2024-01-16T01:47:32;1.03;;;1.03;;
3939;SDS011;1984;48.312;9.244;2024-01-16T01:49:57;3.80;;;1.10;;
3939;SDS011;1984;48.312;9.244;2024-01-16T01:52:24;3.47;;;1.57;;
3939;SDS011;1984;48.312;9.244;2024-01-16T01:54:49;1.70;;;1.33;;
3939;SDS011;1984;48.312;9.244;2024-01-16T01:57:16;1.70;;;1.57;;
3939;SDS011;1984;48.312;9.244;2024-01-16T01:59:43;1.53;;;1.43;;
3939;SDS011;1984;48.312;9.244;2024-01-16T02:02:08;2.37;;;1.00;;
3939;SDS011;1984;48.312;9.244;2024-01-16T02:04:36;1.17;;;1.07;;
3939;SDS011;1984;48.312;9.244;2024-01-16T02:07:01;2.40;;;1.10;;
3939;SDS011;1984;48.312;9.244;2024-01-16T02:09:29;0.90;;;0.87;;
3939;SDS011;1984;48.312;9.244;2024-01-16T02:11:54;2.10;;;1.60;;
3939;SDS011;1984;48.312;9.244;2024-01-16T02:14:20;1.57;;;1.47;;
3939;SDS011;1984;48.312;9.244;2024-01-16T02:16:45;1.67;;;1.57;;
3939;SDS011;1984;48.312;9.244;2024-01-16T02:19:11;1.57;;;1.47;;
3939;SDS011;1984;48.312;9.244;2024-01-16T02:21:38;3.37;;;0.90;;
3939;SDS011;1984;48.312;9.244;2024-01-16T02:24:06;1.80;;;1.33;;
3939;SDS011;1984;48.312;9.244;2024-01-16T02:26:32;2.97;;;1.17;;
3939;SDS011;1984;48.312;9.244;2024-01-16T02:29:00;1.33;;;1.10;;
3939;SDS011;1984;48.312;9.244;2024-01-16T02:31:27;1.47;;;1.37;;
3939;SDS011;1984;48.312;9.244;2024-01-16T02:33:52;3.10;;;1.40;;
3939;SDS011;1984;48.312;9.244;2024-01-16T02:36:18;3.90;;;1.40;;
3939;SDS011;1984;48.312;9.244;2024-01-16T02:38:43;2.73;;;1.40;;
3939;SDS011;1984;48.312;9.244;2024-01-16T02:41:09;2.30;;;1.30;;
3939;SDS011;1984;48.312;9.244;2024-01-16T02:43:36;1.50;;;1.33;;
3939;SDS011;1984;48.312;9.244;2024-01-16T02:46:02;1.50;;;1.10;;
3939;SDS011;1984;48.312;9.244;2024-01-16T02:48:27;5.27;;;0.97;;
3939;SDS011;1984;48.312;9.244;2024-01-16T02:50:53;0.83;;;0.83;;
3939;SDS011;1984;48.312;9.244;2024-01-16T02:53:18;1.23;;;1.13;;
3939;SDS011;1984;48.312;9.244;2024-01-16T02:55:44;2.63;;;1.20;;
3939;SDS011;1984;48.312;9.244;2024-01-16T02:58:09;3.93;;;1.07;;
3939;SDS011;1984;48.312;9.244;2024-01-16T03:00:35;0.70;;;0.70;;
3939;SDS011;1984;48.312;9.244;2024-01-16T03:03:02;1.30;;;1.00;;
3939;SDS011;1984;48.312;9.244;2024-01-16T03:05:27;1.73;;;1.03;;
3939;SDS011;1984;48.312;9.244;2024-01-16T03:07:53;4.37;;;1.80;;
3939;SDS011;1984;48.312;9.244;2024-01-16T03:10:18;1.23;;;1.13;;
3939;SDS011;1984;48.312;9.244;2024-01-16T03:12:44;4.33;;;1.27;;
3939;SDS011;1984;48.312;9.244;2024-01-16T03:15:09;1.33;;;1.23;;
3939;SDS011;1984;48.312;9.244;2024-01-16T03:17:35;1.13;;;1.03;;
3939;SDS011;1984;48.312;9.244;2024-01-16T03:20:00;2.73;;;1.40;;
3939;SDS011;1984;48.312;9.244;2024-01-16T03:22:28;0.90;;;0.90;;
3939;SDS011;1984;48.312;9.244;2024-01-16T03:24:53;2.87;;;1.27;;
3939;SDS011;1984;48.312;9.244;2024-01-16T03:27:19;1.57;;;1.00;;
3939;SDS011;1984;48.312;9.244;2024-01-16T03:29:44;1.60;;;1.07;;
3939;SDS011;1984;48.312;9.244;2024-01-16T03:32:10;3.13;;;1.23;;
3939;SDS011;1984;48.312;9.244;2024-01-16T03:34:36;2.20;;;1.20;;
3939;SDS011;1984;48.312;9.244;2024-01-16T03:37:01;2.03;;;1.60;;
3939;SDS011;1984;48.312;9.244;2024-01-16T03:39:27;3.93;;;1.10;;
3939;SDS011;1984;48.312;9.244;2024-01-16T03:41:53;2.63;;;1.90;;
3939;SDS011;1984;48.312;9.244;2024-01-16T03:44:18;1.60;;;1.50;;
3939;SDS011;1984;48.312;9.244;2024-01-16T03:46:44;1.33;;;1.13;;
3939;SDS011;1984;48.312;9.244;2024-01-16T03:49:09;5.77;;;2.27;;
3939;SDS011;1984;48.312;9.244;2024-01-16T03:51:35;1.50;;;1.10;;
3939;SDS011;1984;48.312;9.244;2024-01-16T03:54:00;1.90;;;1.40;;
3939;SDS011;1984;48.312;9.244;2024-01-16T03:56:26;2.50;;;1.30;;
3939;SDS011;1984;48.312;9.244;2024-01-16T03:58:51;2.80;;;1.70;;
3939;SDS011;1984;48.312;9.244;2024-01-16T04:01:17;5.80;;;2.50;;
3939;SDS011;1984;48.312;9.244;2024-01-16T04:03:43;5.03;;;2.60;;
3939;SDS011;1984;48.312;9.244;2024-01-16T04:06:17;8.07;;;3.07;;
3939;SDS011;1984;48.312;9.244;2024-01-16T04:08:43;7.03;;;3.10;;
3939;SDS011;1984;48.312;9.244;2024-01-16T04:11:12;8.90;;;3.30;;
3939;SDS011;1984;48.312;9.244;2024-01-16T04:13:39;4.10;;;2.70;;
3939;SDS011;1984;48.312;9.244;2024-01-16T04:16:05;4.10;;;1.90;;
3939;SDS011;1984;48.312;9.244;2024-01-16T04:18:35;10.30;;;3.00;;
3939;SDS011;1984;48.312;9.244;2024-01-16T04:21:04;7.73;;;2.70;;
3939;SDS011;1984;48.312;9.244;2024-01-16T04:23:31;8.73;;;3.73;;
3939;SDS011;1984;48.312;9.244;2024-01-16T04:25:56;5.17;;;3.07;;
3939;SDS011;1984;48.312;9.244;2024-01-16T04:28:22;23.10;;;7.37;;
3939;SDS011;1984;48.312;9.244;2024-01-16T04:30:48;7.00;;;3.50;;
3939;SDS011;1984;48.312;9.244;2024-01-16T04:33:14;11.33;;;4.80;;
3939;SDS011;1984;48.312;9.244;2024-01-16T04:35:39;13.07;;;5.80;;
3939;SDS011;1984;48.312;9.244;2024-01-16T04:38:05;7.40;;;4.30;;
3939;SDS011;1984;48.312;9.244;2024-01-16T04:40:30;10.10;;;4.60;;
3939;SDS011;1984;48.312;9.244;2024-01-16T04:42:56;6.97;;;4.37;;
3939;SDS011;1984;48.312;9.244;2024-01-16T04:45:21;5.27;;;2.27;;
3939;SDS011;1984;48.312;9.244;2024-01-16T04:47:47;3.77;;;2.30;;
3939;SDS011;1984;48.312;9.244;2024-01-16T04:50:12;2.83;;;1.90;;
3939;SDS011;1984;48.312;9.244;2024-01-16T04:52:38;1.90;;;1.80;;
3939;SDS011;1984;48.312;9.244;2024-01-16T04:55:03;2.70;;;1.87;;
3939;SDS011;1984;48.312;9.244;2024-01-16T04:57:29;2.80;;;1.63;;
3939;SDS011;1984;48.312;9.244;2024-01-16T04:59:55;2.10;;;1.90;;
3939;SDS011;1984;48.312;9.244;2024-01-16T05:02:20;3.30;;;1.30;;
3939;SDS011;1984;48.312;9.244;2024-01-16T05:04:46;5.07;;;1.53;;
3939;SDS011;1984;48.312;9.244;2024-01-16T05:07:14;1.63;;;1.37;;
3939;SDS011;1984;48.312;9.244;2024-01-16T05:09:40;4.10;;;1.40;;
3939;SDS011;1984;48.312;9.244;2024-01-16T05:12:06;1.80;;;1.47;;
3939;SDS011;1984;48.312;9.244;2024-01-16T05:14:31;2.50;;;1.83;;
3939;SDS011;1984;48.312;9.244;2024-01-16T05:16:57;1.80;;;1.60;;
3939;SDS011;1984;48.312;9.244;2024-01-16T05:19:22;1.77;;;1.67;;
3939;SDS011;1984;48.312;9.244;2024-01-16T05:21:48;8.00;;;2.37;;
3939;SDS011;1984;48.312;9.244;2024-01-16T05:24:13;4.90;;;2.30;;
3939;SDS011;1984;48.312;9.244;2024-01-16T05:26:39;3.07;;;1.70;;
3939;SDS011;1984;48.312;9.244;2024-01-16T05:29:04;2.13;;;1.90;;
3939;SDS011;1984;48.312;9.244;2024-01-16T05:31:30;3.60;;;2.00;;
3939;SDS011;1984;48.312;9.244;2024-01-16T05:33:55;4.80;;;3.00;;
3939;SDS011;1984;48.312;9.244;2024-01-16T05:36:21;4.33;;;2.67;;
3939;SDS011;1984;48.312;9.244;2024-01-16T05:38:46;1.77;;;1.67;;
3939;SDS011;1984;48.312;9.244;2024-01-16T05:41:12;4.13;;;2.67;;
3939;SDS011;1984;48.312;9.244;2024-01-16T05:43:38;6.80;;;2.70;;
3939;SDS011;1984;48.312;9.244;2024-01-16T05:46:03;2.70;;;1.67;;
3939;SDS011;1984;48.312;9.244;2024-01-16T05:48:29;0.80;;;0.80;;
3939;SDS011;1984;48.312;9.244;2024-01-16T05:50:54;3.73;;;1.70;;
3939;SDS011;1984;48.312;9.244;2024-01-16T05:53:20;2.70;;;1.97;;
3939;SDS011;1984;48.312;9.244;2024-01-16T05:55:45;1.90;;;1.73;;
3939;SDS011;1984;48.312;9.244;2024-01-16T05:58:11;5.10;;;2.60;;
3939;SDS011;1984;48.312;9.244;2024-01-16T06:00:37;11.93;;;1.40;;
3939;SDS011;1984;48.312;9.244;2024-01-16T06:03:04;5.37;;;2.53;;
3939;SDS011;1984;48.312;9.244;2024-01-16T06:05:30;4.40;;;2.37;;
3939;SDS011;1984;48.312;9.244;2024-01-16T06:07:55;4.23;;;2.07;;
3939;SDS011;1984;48.312;9.244;2024-01-16T06:10:21;6.90;;;2.70;;
3939;SDS011;1984;48.312;9.244;2024-01-16T06:12:47;5.37;;;3.23;;
3939;SDS011;1984;48.312;9.244;2024-01-16T06:15:12;21.23;;;1.70;;
3939;SDS011;1984;48.312;9.244;2024-01-16T06:17:38;3.07;;;1.73;;
3939;SDS011;1984;48.312;9.244;2024-01-16T06:20:04;1.90;;;1.60;;
3939;SDS011;1984;48.312;9.244;2024-01-16T06:22:31;4.73;;;2.37;;
3939;SDS011;1984;48.312;9.244;2024-01-16T06:24:57;2.20;;;2.10;;
3939;SDS011;1984;48.312;9.244;2024-01-16T06:27:22;2.30;;;2.10;;
3939;SDS011;1984;48.312;9.244;2024-01-16T06:29:48;21.00;;;5.97;;
3939;SDS011;1984;48.312;9.244;2024-01-16T06:32:13;22.80;;;6.33;;
3939;SDS011;1984;48.312;9.244;2024-01-16T06:34:39;3.90;;;2.47;;
3939;SDS011;1984;48.312;9.244;2024-01-16T06:37:04;8.00;;;3.47;;
3939;SDS011;1984;48.312;9.244;2024-01-16T06:39:30;10.30;;;3.10;;
3939;SDS011;1984;48.312;9.244;2024-01-16T06:41:56;3.67;;;2.10;;
3939;SDS011;1984;48.312;9.244;2024-01-16T06:44:21;2.43;;;2.20;;
3939;SDS011;1984;48.312;9.244;2024-01-16T06:46:47;4.63;;;2.40;;
3939;SDS011;1984;48.312;9.244;2024-01-16T06:49:12;5.30;;;2.30;;
3939;SDS011;1984;48.312;9.244;2024-01-16T06:51:38;6.40;;;3.00;;
3939;SDS011;1984;48.312;9.244;2024-01-16T06:54:03;5.33;;;3.03;;
3939;SDS011;1984;48.312;9.244;2024-01-16T06:56:29;4.47;;;2.70;;
3939;SDS011;1984;48.312;9.244;2024-01-16T06:58:55;4.23;;;3.07;;
3939;SDS011;1984;48.312;9.244;2024-01-16T07:01:20;5.07;;;2.67;;
3939;SDS011;1984;48.312;9.244;2024-01-16T07:03:46;3.73;;;2.33;;
3939;SDS011;1984;48.312;9.244;2024-01-16T07:06:11;2.97;;;2.00;;
3939;SDS011;1984;48.312;9.244;2024-01-16T07:08:37;5.23;;;3.00;;
3939;SDS011;1984;48.312;9.244;2024-01-16T07:11:03;8.40;;;3.40;;
3939;SDS011;1984;48.312;9.244;2024-01-16T07:13:32;4.03;;;2.90;;
3939;SDS011;1984;48.312;9.244;2024-01-16T07:15:59;2.47;;;2.27;;
3939;SDS011;1984;48.312;9.244;2024-01-16T07:18:24;7.80;;;3.40;;
3939;SDS011;1984;48.312;9.244;2024-01-16T07:20:52;10.97;;;3.73;;
3939;SDS011;1984;48.312;9.244;2024-01-16T07:23:17;7.30;;;4.47;;
3939;SDS011;1984;48.312;9.244;2024-01-16T07:25:43;8.43;;;3.37;;
3939;SDS011;1984;48.312;9.244;2024-01-16T07:28:08;4.27;;;3.37;;
3939;SDS011;1984;48.312;9.244;2024-01-16T07:30:34;1.63;;;1.37;;
3939;SDS011;1984;48.312;9.244;2024-01-16T07:32:59;1.70;;;1.23;;
3939;SDS011;1984;48.312;9.244;2024-01-16T07:35:25;1.43;;;1.33;;
3939;SDS011;1984;48.312;9.244;2024-01-16T07:37:51;1.07;;;1.07;;
3939;SDS011;1984;48.312;9.244;2024-01-16T07:40:16;3.37;;;2.03;;
3939;SDS011;1984;48.312;9.244;2024-01-16T07:42:42;4.50;;;2.27;;
3939;SDS011;1984;48.312;9.244;2024-01-16T07:45:08;6.27;;;2.07;;
3939;SDS011;1984;48.312;9.244;2024-01-16T07:47:33;2.40;;;2.20;;
3939;SDS011;1984;48.312;9.244;2024-01-16T07:50:00;3.00;;;2.20;;
3939;SDS011;1984;48.312;9.244;2024-01-16T07:52:27;2.57;;;2.33;;
3939;SDS011;1984;48.312;9.244;2024-01-16T07:54:53;3.90;;;2.27;;
3939;SDS011;1984;48.312;9.244;2024-01-16T07:57:19;5.13;;;2.33;;
3939;SDS011;1984;48.312;9.244;2024-01-16T07:59:44;9.30;;;2.90;;
3939;SDS011;1984;48.312;9.244;2024-01-16T08:02:10;3.93;;;3.00;;
3939;SDS011;1984;48.312;9.244;2024-01-16T08:04:35;4.53;;;2.50;;
3939;SDS011;1984;48.312;9.244;2024-01-16T08:07:01;2.43;;;2.23;;
3939;SDS011;1984;48.312;9.244;2024-01-16T08:09:27;6.10;;;3.60;;
3939;SDS011;1984;48.312;9.244;2024-01-16T08:11:52;3.03;;;2.50;;
3939;SDS011;1984;48.312;9.244;2024-01-16T08:14:18;3.57;;;2.23;;
3939;SDS011;1984;48.312;9.244;2024-01-16T08:16:43;7.63;;;2.87;;
3939;SDS011;1984;48.312;9.244;2024-01-16T08:19:09;6.87;;;2.67;;
3939;SDS011;1984;48.312;9.244;2024-01-16T08:21:34;4.27;;;3.20;;
3939;SDS011;1984;48.312;9.244;2024-01-16T08:24:00;8.30;;;3.77;;
3939;SDS011;1984;48.312;9.244;2024-01-16T08:26:25;5.13;;;3.43;;
3939;SDS011;1984;48.312;9.244;2024-01-16T08:28:51;5.70;;;4.03;;
3939;SDS011;1984;48.312;9.244;2024-01-16T08:31:17;10.00;;;5.00;;
3939;SDS011;1984;48.312;9.244;2024-01-16T08:33:45;11.37;;;5.50;;
3939;SDS011;1984;48.312;9.244;2024-01-16T08:36:12;9.47;;;5.80;;
3939;SDS011;1984;48.312;9.244;2024-01-16T08:38:38;14.47;;;7.20;;
3939;SDS011;1984;48.312;9.244;2024-01-16T08:41:03;24.50;;;7.87;;
3939;SDS011;1984;48.312;9.244;2024-01-16T08:43:31;16.80;;;9.30;;
3939;SDS011;1984;48.312;9.244;2024-01-16T08:45:58;15.97;;;9.83;;
3939;SDS011;1984;48.312;9.244;2024-01-16T08:48:23;20.67;;;9.23;;
3939;SDS011;1984;48.312;9.244;2024-01-16T08:50:49;20.90;;;10.77;;
3939;SDS011;1984;48.312;9.244;2024-01-16T08:53:14;24.00;;;10.60;;
3939;SDS011;1984;48.312;9.244;2024-01-16T08:55:40;28.53;;;12.17;;
3939;SDS011;1984;48.312;9.244;2024-01-16T08:58:05;32.50;;;13.90;;
3939;SDS011;1984;48.312;9.244;2024-01-16T09:00:31;28.27;;;11.80;;
3939;SDS011;1984;48.312;9.244;2024-01-16T09:02:58;22.97;;;11.37;;
3939;SDS011;1984;48.312;9.244;2024-01-16T09:05:23;20.20;;;10.20;;
3939;SDS011;1984;48.312;9.244;2024-01-16T09:07:50;19.20;;;10.57;;
3939;SDS011;1984;48.312;9.244;2024-01-16T09:10:17;15.30;;;9.33;;
3939;SDS011;1984;48.312;9.244;2024-01-16T09:12:43;17.07;;;7.10;;
3939;SDS011;1984;48.312;9.244;2024-01-16T09:15:09;14.93;;;7.30;;
3939;SDS011;1984;48.312;9.244;2024-01-16T09:17:35;9.17;;;4.37;;
3939;SDS011;1984;48.312;9.244;2024-01-16T09:20:00;13.73;;;4.67;;
3939;SDS011;1984;48.312;9.244;2024-01-16T09:22:26;10.40;;;4.63;;
3939;SDS011;1984;48.312;9.244;2024-01-16T09:24:52;11.73;;;5.33;;
3939;SDS011;1984;48.312;9.244;2024-01-16T09:27:17;10.50;;;5.77;;
3939;SDS011;1984;48.312;9.244;2024-01-16T09:29:43;9.57;;;5.57;;
3939;SDS011;1984;48.312;9.244;2024-01-16T09:32:08;16.50;;;6.87;;
3939;SDS011;1984;48.312;9.244;2024-01-16T09:34:34;46.23;;;13.87;;
3939;SDS011;1984;48.312;9.244;2024-01-16T09:37:00;29.80;;;12.03;;
3939;SDS011;1984;48.312;9.244;2024-01-16T09:39:27;41.57;;;16.30;;
3939;SDS011;1984;48.312;9.244;2024-01-16T09:41:55;30.33;;;10.70;;
3939;SDS011;1984;48.312;9.244;2024-01-16T09:44:25;24.63;;;9.43;;
3939;SDS011;1984;48.312;9.244;2024-01-16T09:46:52;21.70;;;10.20;;
3939;SDS011;1984;48.312;9.244;2024-01-16T09:49:19;28.47;;;11.40;;
3939;SDS011;1984;48.312;9.244;2024-01-16T09:51:45;19.80;;;8.70;;
3939;SDS011;1984;48.312;9.244;2024-01-16T09:54:11;12.30;;;6.57;;
3939;SDS011;1984;48.312;9.244;2024-01-16T09:56:43;47.53;;;16.23;;
3939;SDS011;1984;48.312;9.244;2024-01-16T09:59:10;14.67;;;7.80;;
3939;SDS011;1984;48.312;9.244;2024-01-16T10:01:40;10.33;;;5.37;;
3939;SDS011;1984;48.312;9.244;2024-01-16T10:04:06;10.80;;;5.90;;
3939;SDS011;1984;48.312;9.244;2024-01-16T10:06:32;9.60;;;5.27;;
3939;SDS011;1984;48.312;9.244;2024-01-16T10:08:59;14.67;;;5.57;;
3939;SDS011;1984;48.312;9.244;2024-01-16T10:11:25;13.37;;;5.87;;
3939;SDS011;1984;48.312;9.244;2024-01-16T10:13:50;11.57;;;5.50;;
3939;SDS011;1984;48.312;9.244;2024-01-16T10:16:16;11.70;;;5.90;;
3939;SDS011;1984;48.312;9.244;2024-01-16T10:18:41;11.20;;;5.10;;
3939;SDS011;1984;48.312;9.244;2024-01-16T10:21:19;11.20;;;5.00;;
3939;SDS011;1984;48.312;9.244;2024-01-16T10:23:47;20.13;;;5.60;;
3939;SDS011;1984;48.312;9.244;2024-01-16T10:26:13;12.43;;;6.07;;
3939;SDS011;1984;48.312;9.244;2024-01-16T10:28:43;7.37;;;5.10;;
3939;SDS011;1984;48.312;9.244;2024-01-16T10:31:09;13.20;;;6.20;;
3939;SDS011;1984;48.312;9.244;2024-01-16T10:33:36;11.33;;;5.90;;
3939;SDS011;1984;48.312;9.244;2024-01-16T10:38:37;23.13;;;9.70;;
3939;SDS011;1984;48.312;9.244;2024-01-16T10:41:13;23.90;;;10.70;;
3939;SDS011;1984;48.312;9.244;2024-01-16T10:43:41;20.47;;;8.10;;
3939;SDS011;1984;48.312;9.244;2024-01-16T10:46:10;18.33;;;8.60;;
3939;SDS011;1984;48.312;9.244;2024-01-16T10:48:40;22.03;;;9.70;;
3939;SDS011;1984;48.312;9.244;2024-01-16T10:51:07;13.70;;;7.93;;
3939;SDS011;1984;48.312;9.244;2024-01-16T10:53:36;15.43;;;6.40;;
3939;SDS011;1984;48.312;9.244;2024-01-16T10:56:06;11.37;;;6.27;;
3939;SDS011;1984;48.312;9.244;2024-01-16T10:58:35;11.60;;;6.67;;
3939;SDS011;1984;48.312;9.244;2024-01-16T11:01:03;6.30;;;5.10;;
3939;SDS011;1984;48.312;9.244;2024-01-16T11:06:12;11.17;;;6.87;;
3939;SDS011;1984;48.312;9.244;2024-01-16T11:08:41;13.30;;;6.50;;
3939;SDS011;1984;48.312;9.244;2024-01-16T11:11:07;18.10;;;11.00;;
3939;SDS011;1984;48.312;9.244;2024-01-16T11:13:33;13.57;;;7.60;;
3939;SDS011;1984;48.312;9.244;2024-01-16T11:16:00;17.73;;;9.70;;
3939;SDS011;1984;48.312;9.244;2024-01-16T11:18:29;17.10;;;8.00;;
3939;SDS011;1984;48.312;9.244;2024-01-16T11:20:56;13.20;;;8.70;;
3939;SDS011;1984;48.312;9.244;2024-01-16T11:23:23;21.17;;;7.97;;
3939;SDS011;1984;48.312;9.244;2024-01-16T11:25:49;15.50;;;7.17;;
3939;SDS011;1984;48.312;9.244;2024-01-16T11:28:14;14.83;;;8.30;;
3939;SDS011;1984;48.312;9.244;2024-01-16T11:30:41;10.20;;;5.77;;
3939;SDS011;1984;48.312;9.244;2024-01-16T11:35:56;10.87;;;6.63;;
3939;SDS011;1984;48.312;9.244;2024-01-16T11:38:21;10.50;;;5.90;;
3939;SDS011;1984;48.312;9.244;2024-01-16T11:40:51;7.00;;;3.70;;
3939;SDS011;1984;48.312;9.244;2024-01-16T11:45:59;7.67;;;4.07;;
3939;SDS011;1984;48.312;9.244;2024-01-16T11:48:25;7.10;;;3.67;;
3939;SDS011;1984;48.312;9.244;2024-01-16T11:50:50;5.60;;;2.73;;
3939;SDS011;1984;48.312;9.244;2024-01-16T12:01:04;4.10;;;2.83;;
3939;SDS011;1984;48.312;9.244;2024-01-16T12:03:31;4.40;;;2.97;;
3939;SDS011;1984;48.312;9.244;2024-01-16T12:06:00;3.80;;;2.63;;
3939;SDS011;1984;48.312;9.244;2024-01-16T12:08:27;4.57;;;2.47;;
3939;SDS011;1984;48.312;9.244;2024-01-16T12:10:53;3.67;;;2.17;;
3939;SDS011;1984;48.312;9.244;2024-01-16T12:13:19;3.50;;;2.30;;
3939;SDS011;1984;48.312;9.244;2024-01-16T12:15:44;4.60;;;2.80;;
3939;SDS011;1984;48.312;9.244;2024-01-16T12:18:17;3.80;;;2.43;;
3939;SDS011;1984;48.312;9.244;2024-01-16T12:20:43;4.40;;;2.50;;
3939;SDS011;1984;48.312;9.244;2024-01-16T12:23:09;3.27;;;2.13;;
3939;SDS011;1984;48.312;9.244;2024-01-16T12:25:35;3.40;;;2.50;;
3939;SDS011;1984;48.312;9.244;2024-01-16T12:28:02;3.90;;;2.10;;
3939;SDS011;1984;48.312;9.244;2024-01-16T12:30:32;6.60;;;3.20;;
3939;SDS011;1984;48.312;9.244;2024-01-16T12:33:08;2.70;;;2.00;;
3939;SDS011;1984;48.312;9.244;2024-01-16T12:38:07;4.90;;;2.90;;
3939;SDS011;1984;48.312;9.244;2024-01-16T12:40:35;6.80;;;3.50;;
3939;SDS011;1984;48.312;9.244;2024-01-16T12:43:15;3.53;;;2.50;;
3939;SDS011;1984;48.312;9.244;2024-01-16T12:45:42;4.57;;;2.87;;
3939;SDS011;1984;48.312;9.244;2024-01-16T12:48:09;6.23;;;2.90;;
3939;SDS011;1984;48.312;9.244;2024-01-16T12:50:35;7.03;;;3.10;;
3939;SDS011;1984;48.312;9.244;2024-01-16T12:53:05;4.90;;;3.00;;
3939;SDS011;1984;48.312;9.244;2024-01-16T12:55:33;3.50;;;2.70;;
3939;SDS011;1984;48.312;9.244;2024-01-16T13:00:38;6.70;;;3.23;;
3939;SDS011;1984;48.312;9.244;2024-01-16T13:03:06;6.00;;;2.43;;
3939;SDS011;1984;48.312;9.244;2024-01-16T13:05:32;3.30;;;2.30;;
3939;SDS011;1984;48.312;9.244;2024-01-16T13:08:03;2.57;;;2.37;;
3939;SDS011;1984;48.312;9.244;2024-01-16T13:10:29;3.80;;;2.43;;
3939;SDS011;1984;48.312;9.244;2024-01-16T13:15:40;2.20;;;2.00;;
3939;SDS011;1984;48.312;9.244;2024-01-16T13:18:16;3.00;;;2.57;;
3939;SDS011;1984;48.312;9.244;2024-01-16T13:20:50;2.30;;;2.10;;
3939;SDS011;1984;48.312;9.244;2024-01-16T13:23:17;3.63;;;2.10;;
3939;SDS011;1984;48.312;9.244;2024-01-16T13:25:44;6.33;;;2.53;;
3939;SDS011;1984;48.312;9.244;2024-01-16T13:28:11;9.17;;;3.77;;
3939;SDS011;1984;48.312;9.244;2024-01-16T13:30:37;5.70;;;2.77;;
3939;SDS011;1984;48.312;9.244;2024-01-16T13:33:03;3.63;;;1.97;;
3939;SDS011;1984;48.312;9.244;2024-01-16T13:35:29;2.83;;;2.43;;
3939;SDS011;1984;48.312;9.244;2024-01-16T13:37:55;2.87;;;2.03;;
3939;SDS011;1984;48.312;9.244;2024-01-16T13:40:21;4.47;;;2.60;;
3939;SDS011;1984;48.312;9.244;2024-01-16T13:42:47;5.07;;;2.70;;
3939;SDS011;1984;48.312;9.244;2024-01-16T13:45:13;6.77;;;3.33;;
3939;SDS011;1984;48.312;9.244;2024-01-16T13:47:39;3.97;;;2.37;;
3939;SDS011;1984;48.312;9.244;2024-01-16T13:50:06;5.70;;;3.43;;
3939;SDS011;1984;48.312;9.244;2024-01-16T13:52:32;6.07;;;3.27;;
3939;SDS011;1984;48.312;9.244;2024-01-16T13:54:59;7.50;;;3.23;;
3939;SDS011;1984;48.312;9.244;2024-01-16T13:57:27;6.13;;;2.60;;
3939;SDS011;1984;48.312;9.244;2024-01-16T13:59:53;4.53;;;2.53;;
3939;SDS011;1984;48.312;9.244;2024-01-16T14:02:19;6.13;;;3.03;;
3939;SDS011;1984;48.312;9.244;2024-01-16T14:04:44;3.57;;;2.70;;
3939;SDS011;1984;48.312;9.244;2024-01-16T14:07:10;3.07;;;2.43;;
3939;SDS011;1984;48.312;9.244;2024-01-16T14:09:35;4.07;;;2.70;;
3939;SDS011;1984;48.312;9.244;2024-01-16T14:12:01;4.80;;;2.83;;
3939;SDS011;1984;48.312;9.244;2024-01-16T14:14:27;2.67;;;2.43;;
3939;SDS011;1984;48.312;9.244;2024-01-16T14:16:53;3.67;;;2.77;;
3939;SDS011;1984;48.312;9.244;2024-01-16T14:19:19;3.83;;;2.90;;
3939;SDS011;1984;48.312;9.244;2024-01-16T14:21:45;6.33;;;2.63;;
3939;SDS011;1984;48.312;9.244;2024-01-16T14:24:12;4.73;;;2.70;;
3939;SDS011;1984;48.312;9.244;2024-01-16T14:26:38;3.43;;;2.30;;
3939;SDS011;1984;48.312;9.244;2024-01-16T14:29:09;3.00;;;2.30;;
3939;SDS011;1984;48.312;9.244;2024-01-16T14:31:35;4.10;;;2.47;;
3939;SDS011;1984;48.312;9.244;2024-01-16T14:34:00;2.87;;;1.97;;
3939;SDS011;1984;48.312;9.244;2024-01-16T14:36:26;3.37;;;2.40;;
3939;SDS011;1984;48.312;9.244;2024-01-16T14:38:51;3.90;;;2.90;;
3939;SDS011;1984;48.312;9.244;2024-01-16T14:41:17;8.90;;;3.00;;
3939;SDS011;1984;48.312;9.244;2024-01-16T14:43:42;3.90;;;2.13;;
3939;SDS011;1984;48.312;9.244;2024-01-16T14:46:08;3.67;;;3.07;;
3939;SDS011;1984;48.312;9.244;2024-01-16T14:48:37;5.30;;;3.13;;
3939;SDS011;1984;48.312;9.244;2024-01-16T14:51:03;8.07;;;4.33;;
3939;SDS011;1984;48.312;9.244;2024-01-16T14:53:29;8.83;;;4.93;;
3939;SDS011;1984;48.312;9.244;2024-01-16T14:55:56;7.43;;;3.30;;
3939;SDS011;1984;48.312;9.244;2024-01-16T14:58:22;4.77;;;3.30;;
3939;SDS011;1984;48.312;9.244;2024-01-16T15:00:51;7.77;;;3.70;;
3939;SDS011;1984;48.312;9.244;2024-01-16T15:03:18;8.70;;;3.37;;
3939;SDS011;1984;48.312;9.244;2024-01-16T15:05:46;6.40;;;3.60;;
3939;SDS011;1984;48.312;9.244;2024-01-16T15:08:12;3.87;;;3.10;;
3939;SDS011;1984;48.312;9.244;2024-01-16T15:10:38;6.43;;;3.33;;
3939;SDS011;1984;48.312;9.244;2024-01-16T15:13:03;3.03;;;2.70;;
3939;SDS011;1984;48.312;9.244;2024-01-16T15:15:30;5.93;;;3.30;;
3939;SDS011;1984;48.312;9.244;2024-01-16T15:17:55;4.90;;;3.43;;
3939;SDS011;1984;48.312;9.244;2024-01-16T15:20:21;15.33;;;3.27;;
3939;SDS011;1984;48.312;9.244;2024-01-16T15:22:47;4.57;;;2.83;;
3939;SDS011;1984;48.312;9.244;2024-01-16T15:25:17;5.83;;;3.13;;
3939;SDS011;1984;48.312;9.244;2024-01-16T15:27:46;11.73;;;3.27;;
3939;SDS011;1984;48.312;9.244;2024-01-16T15:30:13;9.50;;;4.20;;
3939;SDS011;1984;48.312;9.244;2024-01-16T15:32:39;5.53;;;3.73;;